Terminal Aerodrome Forecast
Issued by NWS Cleveland, OH

Home | Current Version | Previous Version | Text Only | Print | Product List | Glossary On
Versions: 1 2 3 4 5 6 7 8 9 10 11 12 13 14 15
000
FTUS41 KCLE 301700
TAFYNG
TAF
KYNG 301737Z 3018/3118 32008KT P6SM SCT025 OVC045
      TEMPO 3018/3020 BKN025
     FM310100 VRB03KT P6SM SCT040 OVC120
     FM310900 18003KT P6SM SCT025 OVC040
     FM311500 21006KT P6SM OVC025=

USA.gov is the U.S. government's official web portal to all federal, state and local government web resources and services.